Time;durP1;ratioP1;P1;durP2;ratioP2;P2;SDS_P1;SDS_P2;PMS_P1;PMS_P2;Temp;Humidity;BMP_temperature;BMP_pressure;BME280_temperature;BME280_humidity;BME280_pressure;Samples;Min_cycle;Max_cycle;Signal;HPM_P1;HPM_P2
2023/03/08 00:01:27;;;;;;;24.15;14.60;;;28.50;83.70;;;;;;5026440;28;20033;-52
2023/03/08 00:03:55;;;;;;;28.27;13.70;;;28.50;83.90;;;;;;5025218;28;20033;-52
2023/03/08 00:06:22;;;;;;;24.92;12.75;;;28.50;84.00;;;;;;5026290;28;20068;-52
2023/03/08 00:08:49;;;;;;;23.95;12.70;;;28.50;83.90;;;;;;5026563;28;20370;-52
2023/03/08 00:11:17;;;;;;;20.98;12.35;;;28.50;84.10;;;;;;5026239;28;20210;-53
2023/03/08 00:13:44;;;;;;;19.17;12.40;;;28.40;84.00;;;;;;5026247;28;20050;-55
2023/03/08 00:16:12;;;;;;;25.02;12.48;;;28.40;84.00;;;;;;5026298;28;20018;-54
2023/03/08 00:18:39;;;;;;;21.83;11.82;;;28.40;84.00;;;;;;5026301;28;20049;-49
2023/03/08 00:21:14;;;;;;;23.05;12.73;;;28.40;83.90;;;;;;5026022;28;20032;-53
2023/03/08 00:23:41;;;;;;;18.83;12.02;;;28.40;83.90;;;;;;5026032;28;20030;-54
2023/03/08 00:26:08;;;;;;;20.50;11.80;;;28.40;83.60;;;;;;5025930;28;20151;-54
2023/03/08 00:28:38;;;;;;;23.25;11.48;;;28.40;83.60;;;;;;5026613;28;20013;-52
2023/03/08 00:31:10;;;;;;;21.73;11.55;;;28.30;83.30;;;;;;5025917;28;20048;-52
2023/03/08 00:33:40;;;;;;;18.88;11.25;;;28.30;83.20;;;;;;5025973;28;20049;-53
2023/03/08 00:36:13;;;;;;;18.23;11.30;;;28.30;83.10;;;;;;5025783;28;20026;-54
2023/03/08 00:38:40;;;;;;;17.30;11.07;;;28.30;83.00;;;;;;5025535;28;20034;-53
2023/03/08 00:41:08;;;;;;;17.17;11.48;;;28.30;82.90;;;;;;5025508;28;20050;-52
2023/03/08 00:43:34;;;;;;;19.63;11.18;;;28.30;82.80;;;;;;5026250;28;20056;-53
2023/03/08 00:46:01;;;;;;;19.65;11.63;;;28.20;82.60;;;;;;5025621;28;20028;-52
2023/03/08 00:48:28;;;;;;;19.63;11.88;;;28.30;82.60;;;;;;5026024;28;20030;-51
2023/03/08 00:50:56;;;;;;;18.38;11.18;;;28.20;82.30;;;;;;5025613;28;20033;-53
2023/03/08 00:53:22;;;;;;;19.83;12.43;;;28.20;82.20;;;;;;5025570;28;20089;-53
2023/03/08 00:55:57;;;;;;;18.50;11.40;;;28.20;82.20;;;;;;5025045;28;20072;-55
2023/03/08 00:58:25;;;;;;;20.20;11.25;;;28.20;82.00;;;;;;5025621;28;20080;-53
2023/03/08 01:00:52;;;;;;;19.92;11.73;;;28.20;81.80;;;;;;5025208;28;20029;-52
2023/03/08 01:03:20;;;;;;;24.10;11.50;;;28.10;81.60;;;;;;5026034;28;20072;-54
2023/03/08 01:05:49;;;;;;;21.55;12.18;;;28.10;81.70;;;;;;5025593;28;20034;-51
2023/03/08 01:08:17;;;;;;;24.13;14.13;;;28.10;81.50;;;;;;5025592;28;20022;-52
2023/03/08 01:10:53;;;;;;;20.77;12.07;;;28.10;81.50;;;;;;5024842;28;20030;-50
2023/03/08 01:13:20;;;;;;;20.38;12.68;;;28.00;81.20;;;;;;5025792;28;20022;-54
2023/03/08 01:15:50;;;;;;;21.25;12.73;;;28.00;81.20;;;;;;5025085;28;20037;-52
2023/03/08 01:18:17;;;;;;;26.70;12.77;;;28.10;81.30;;;;;;5024893;28;20321;-53
2023/03/08 01:20:43;;;;;;;19.88;11.48;;;28.10;81.00;;;;;;5025038;28;20029;-52
2023/03/08 01:23:10;;;;;;;19.58;11.45;;;28.10;80.70;;;;;;5025066;28;20033;-54
2023/03/08 01:25:37;;;;;;;23.77;11.43;;;28.10;80.60;;;;;;5025046;28;20217;-52
2023/03/08 01:28:03;;;;;;;19.95;11.45;;;28.10;80.60;;;;;;5025032;28;20037;-52
2023/03/08 01:30:30;;;;;;;18.35;11.15;;;28.10;80.50;;;;;;5024879;28;20029;-52
2023/03/08 01:32:57;;;;;;;16.50;11.43;;;28.10;80.30;;;;;;5018913;28;20037;-58
2023/03/08 01:35:23;;;;;;;19.27;10.88;;;28.00;80.10;;;;;;5011690;28;20030;-49
2023/03/08 01:37:54;;;;;;;23.63;11.20;;;28.00;80.00;;;;;;5004768;28;20030;-53
2023/03/08 01:40:21;;;;;;;24.13;11.23;;;28.00;79.90;;;;;;5013932;28;20054;-53
2023/03/08 01:42:48;;;;;;;17.88;11.77;;;28.00;80.00;;;;;;5007798;28;20310;-56
2023/03/08 01:45:52;;;;;;;22.60;11.35;;;28.00;79.90;;;;;;5013998;28;20026;-52
2023/03/08 01:48:30;;;;;;;25.70;11.40;;;28.00;79.70;;;;;;5009857;28;20044;-53
2023/03/08 01:50:57;;;;;;;21.27;10.55;;;28.00;79.50;;;;;;5020779;28;20318;-51
2023/03/08 01:53:28;;;;;;;19.38;11.55;;;28.00;79.40;;;;;;5025207;28;20046;-52
2023/03/08 01:55:56;;;;;;;18.85;11.38;;;28.00;79.40;;;;;;5025179;28;20030;-52
2023/03/08 01:58:25;;;;;;;19.50;11.68;;;27.90;79.20;;;;;;5023489;28;20090;-52
2023/03/08 02:00:52;;;;;;;20.48;11.10;;;27.90;79.30;;;;;;5024504;28;20020;-53
2023/03/08 02:03:25;;;;;;;18.67;10.77;;;27.90;79.20;;;;;;5018054;28;20324;-52
2023/03/08 02:05:51;;;;;;;18.08;11.05;;;27.90;79.20;;;;;;5020589;28;20057;-52
2023/03/08 02:08:18;;;;;;;18.45;11.07;;;27.90;79.20;;;;;;5005099;28;20034;-56
2023/03/08 02:10:45;;;;;;;18.00;10.80;;;27.90;79.20;;;;;;5004812;28;20010;-52
2023/03/08 02:13:12;;;;;;;16.65;10.52;;;27.80;79.10;;;;;;5005052;28;20041;-52
2023/03/08 02:15:39;;;;;;;21.20;11.23;;;27.80;79.20;;;;;;5006363;28;20218;-51
2023/03/08 02:18:06;;;;;;;20.38;11.68;;;27.80;79.10;;;;;;5014029;28;20329;-52
2023/03/08 02:20:36;;;;;;;17.08;10.90;;;27.80;79.10;;;;;;5015484;28;20101;-54
2023/03/08 02:23:20;;;;;;;16.92;11.27;;;27.80;79.00;;;;;;5004252;28;20026;-52
2023/03/08 02:25:56;;;;;;;18.45;11.52;;;27.80;79.00;;;;;;5004223;28;20389;-52
2023/03/08 02:28:26;;;;;;;15.43;10.75;;;27.80;78.80;;;;;;5004367;28;20034;-52
2023/03/08 02:30:55;;;;;;;16.63;10.98;;;27.80;78.90;;;;;;5004609;28;20030;-56
2023/03/08 02:33:23;;;;;;;19.65;10.82;;;27.80;78.80;;;;;;5004876;28;20026;-54
2023/03/08 02:35:51;;;;;;;19.38;11.65;;;27.70;78.60;;;;;;5004368;28;20143;-50
2023/03/08 02:38:22;;;;;;;18.45;10.30;;;27.80;78.70;;;;;;5004449;28;20034;-51
2023/03/08 02:40:52;;;;;;;20.83;10.98;;;27.70;78.60;;;;;;5004209;28;20046;-54
2023/03/08 02:43:20;;;;;;;17.70;10.95;;;27.80;78.90;;;;;;5004898;28;20069;-52
2023/03/08 02:45:46;;;;;;;15.80;10.43;;;27.70;78.90;;;;;;5004761;28;20025;-54
2023/03/08 02:48:17;;;;;;;15.93;10.57;;;27.70;79.00;;;;;;5024250;28;20234;-55
2023/03/08 02:50:43;;;;;;;16.95;10.38;;;27.70;79.10;;;;;;5024197;28;20022;-54
2023/03/08 02:53:11;;;;;;;18.77;10.48;;;27.70;79.10;;;;;;5024010;28;20026;-50
2023/03/08 02:55:38;;;;;;;15.57;10.43;;;27.60;79.30;;;;;;5024323;28;20101;-50
2023/03/08 02:58:26;;;;;;;18.77;10.57;;;27.60;79.50;;;;;;5023355;28;20287;-52
2023/03/08 03:00:56;;;;;;;16.55;10.68;;;27.60;79.60;;;;;;5023651;28;20045;-54
2023/03/08 03:03:23;;;;;;;15.57;10.68;;;27.60;79.70;;;;;;5011483;28;20038;-49
2023/03/08 03:05:49;;;;;;;19.40;10.20;;;27.60;79.80;;;;;;5024597;28;20206;-51
2023/03/08 03:08:22;;;;;;;13.50;10.18;;;27.60;79.90;;;;;;5024553;28;20298;-59
2023/03/08 03:10:48;;;;;;;19.02;10.02;;;27.60;79.80;;;;;;5024229;28;20025;-53
2023/03/08 03:13:15;;;;;;;16.52;10.90;;;27.50;79.70;;;;;;5024380;28;20045;-54
2023/03/08 03:15:44;;;;;;;13.15;10.07;;;27.50;79.70;;;;;;5024148;28;20089;-54
2023/03/08 03:18:11;;;;;;;14.27;10.32;;;27.50;79.70;;;;;;5024471;28;20045;-59
2023/03/08 03:20:40;;;;;;;18.33;10.95;;;27.50;79.80;;;;;;5026130;28;20088;-47
2023/03/08 03:23:07;;;;;;;15.25;10.35;;;27.50;79.80;;;;;;5027453;28;20029;-55
2023/03/08 03:25:37;;;;;;;15.82;10.88;;;27.50;79.80;;;;;;5027506;28;20049;-51
2023/03/08 03:28:04;;;;;;;15.60;11.00;;;27.50;79.90;;;;;;5028148;28;20019;-53
2023/03/08 03:30:30;;;;;;;14.98;11.68;;;27.40;79.80;;;;;;5027341;28;20034;-52
2023/03/08 03:32:57;;;;;;;19.55;11.60;;;27.50;80.00;;;;;;5027926;28;20040;-54
2023/03/08 03:35:23;;;;;;;22.38;12.77;;;27.40;79.80;;;;;;5027255;28;20042;-54
2023/03/08 03:37:50;;;;;;;20.35;12.77;;;27.40;80.00;;;;;;5027250;28;20034;-53
2023/03/08 03:40:17;;;;;;;17.15;12.60;;;27.40;79.80;;;;;;5026768;28;20121;-53
2023/03/08 03:42:43;;;;;;;20.13;13.05;;;27.40;79.90;;;;;;5027292;28;20061;-53
2023/03/08 03:45:10;;;;;;;18.30;12.27;;;27.40;79.90;;;;;;5026761;28;20313;-53
2023/03/08 03:47:37;;;;;;;18.15;12.23;;;27.40;79.80;;;;;;5027286;28;20057;-52
2023/03/08 03:50:04;;;;;;;19.33;11.55;;;27.30;79.80;;;;;;5026928;28;20021;-55
2023/03/08 03:52:30;;;;;;;16.60;12.48;;;27.30;79.70;;;;;;5026860;28;20310;-56
2023/03/08 03:54:57;;;;;;;19.08;15.30;;;27.30;79.70;;;;;;5026740;28;20038;-53
2023/03/08 03:57:23;;;;;;;26.85;21.70;;;27.30;79.80;;;;;;5026894;28;20355;-53
2023/03/08 03:59:50;;;;;;;27.52;24.23;;;27.30;79.80;;;;;;5026501;28;20229;-55
2023/03/08 04:02:16;;;;;;;32.95;29.23;;;27.30;79.80;;;;;;5026754;28;20306;-53
2023/03/08 04:04:43;;;;;;;35.92;31.92;;;27.30;79.80;;;;;;5026502;28;20021;-52
2023/03/08 04:07:12;;;;;;;30.98;27.58;;;27.30;79.70;;;;;;5026301;28;20072;-52
2023/03/08 04:09:38;;;;;;;27.98;23.23;;;27.20;79.70;;;;;;5026426;28;20014;-53
2023/03/08 04:12:05;;;;;;;21.67;19.42;;;27.20;79.70;;;;;;5026558;28;20075;-54
2023/03/08 04:14:32;;;;;;;23.33;16.63;;;27.20;79.70;;;;;;5026160;28;20026;-56
2023/03/08 04:16:58;;;;;;;20.30;15.50;;;27.20;79.60;;;;;;5025597;28;20030;-58
2023/03/08 04:19:25;;;;;;;20.08;14.73;;;27.20;79.60;;;;;;5014158;28;20053;-53
2023/03/08 04:21:51;;;;;;;18.60;13.45;;;27.20;79.70;;;;;;5026068;28;20028;-53
2023/03/08 04:24:18;;;;;;;18.92;12.80;;;27.20;79.70;;;;;;5026067;28;20030;-53
2023/03/08 04:26:45;;;;;;;21.02;13.40;;;27.20;79.70;;;;;;5026294;28;20061;-56
2023/03/08 04:29:11;;;;;;;19.30;12.70;;;27.20;79.70;;;;;;5025930;28;20053;-53
2023/03/08 04:31:38;;;;;;;18.00;12.63;;;27.20;79.70;;;;;;5024856;28;20042;-53
2023/03/08 04:34:04;;;;;;;17.67;12.52;;;27.10;79.70;;;;;;5025984;28;20329;-55
2023/03/08 04:36:31;;;;;;;15.80;11.90;;;27.10;79.80;;;;;;5025891;28;20049;-50
2023/03/08 04:39:15;;;;;;;18.65;11.68;;;27.10;79.90;;;;;;5025816;28;20198;-53
2023/03/08 04:41:42;;;;;;;17.77;11.50;;;27.10;80.00;;;;;;5026127;28;20046;-54
2023/03/08 04:44:08;;;;;;;17.25;11.95;;;27.10;80.00;;;;;;5025678;28;20025;-54
2023/03/08 04:46:35;;;;;;;14.60;11.07;;;27.00;80.10;;;;;;5025668;28;20293;-52
2023/03/08 04:49:02;;;;;;;18.58;11.80;;;27.00;80.10;;;;;;5025723;28;20097;-58
2023/03/08 04:51:28;;;;;;;18.00;11.75;;;27.00;80.20;;;;;;5025441;28;20053;-56
2023/03/08 04:53:55;;;;;;;17.63;11.73;;;27.00;80.10;;;;;;5025701;28;20096;-51
2023/03/08 04:56:21;;;;;;;14.65;11.43;;;27.00;80.00;;;;;;5025642;28;20026;-52
2023/03/08 04:58:48;;;;;;;14.00;11.27;;;27.00;79.90;;;;;;5025623;28;20214;-51
2023/03/08 05:01:21;;;;;;;15.57;10.82;;;27.00;79.90;;;;;;5025282;28;20205;-52
2023/03/08 05:03:51;;;;;;;17.67;11.85;;;27.00;80.10;;;;;;5025367;28;20018;-51
2023/03/08 05:06:18;;;;;;;20.25;12.00;;;27.00;80.20;;;;;;5025252;28;20026;-53
2023/03/08 05:08:45;;;;;;;16.67;12.13;;;26.90;80.20;;;;;;5025339;28;20093;-52
2023/03/08 05:11:21;;;;;;;19.23;12.50;;;26.90;80.20;;;;;;5025122;28;20037;-50
2023/03/08 05:13:48;;;;;;;17.83;11.60;;;26.90;80.30;;;;;;5025173;28;20024;-54
2023/03/08 05:16:15;;;;;;;16.17;11.90;;;26.90;80.20;;;;;;5025125;28;20338;-55
2023/03/08 05:18:42;;;;;;;16.75;11.85;;;26.90;80.20;;;;;;5025024;28;20043;-52
2023/03/08 05:21:14;;;;;;;17.23;11.38;;;26.90;80.20;;;;;;5025117;28;20045;-52
2023/03/08 05:23:41;;;;;;;20.08;12.40;;;26.90;80.30;;;;;;5025087;28;20053;-53
2023/03/08 05:26:10;;;;;;;17.83;12.02;;;26.90;80.30;;;;;;5024932;28;20026;-52
2023/03/08 05:28:37;;;;;;;19.65;11.95;;;26.90;80.30;;;;;;5025009;28;20096;-57
2023/03/08 05:31:06;;;;;;;17.17;11.30;;;26.90;80.30;;;;;;5025017;28;20064;-53
2023/03/08 05:33:33;;;;;;;14.65;11.15;;;26.80;80.30;;;;;;5025304;28;20194;-51
2023/03/08 05:36:00;;;;;;;15.00;11.50;;;26.90;80.30;;;;;;5025035;28;20250;-56
2023/03/08 05:38:27;;;;;;;15.57;11.63;;;26.80;80.10;;;;;;5024663;28;20014;-51
2023/03/08 05:40:53;;;;;;;17.25;10.93;;;26.80;80.20;;;;;;5024533;28;20106;-56
2023/03/08 05:43:21;;;;;;;18.05;11.82;;;26.80;79.90;;;;;;5024684;28;20042;-53
2023/03/08 05:45:58;;;;;;;16.23;11.20;;;26.80;79.90;;;;;;5024732;28;20306;-53
2023/03/08 05:48:25;;;;;;;16.92;10.73;;;26.80;79.90;;;;;;5025136;28;20026;-56
2023/03/08 05:50:53;;;;;;;15.82;10.77;;;26.80;79.80;;;;;;5024613;28;20029;-56
2023/03/08 05:53:20;;;;;;;15.43;10.75;;;26.80;79.90;;;;;;5023672;28;20206;-52
2023/03/08 05:55:47;;;;;;;17.35;10.98;;;26.80;79.80;;;;;;5021617;28;20041;-51
2023/03/08 05:58:14;;;;;;;13.73;10.65;;;26.80;79.60;;;;;;5014654;28;20030;-52
2023/03/08 06:00:41;;;;;;;13.60;10.15;;;26.80;79.50;;;;;;5012280;28;20390;-60
2023/03/08 06:03:08;;;;;;;14.85;10.15;;;26.80;79.40;;;;;;5004973;28;20326;-57
2023/03/08 06:05:34;;;;;;;14.10;9.68;;;26.90;79.50;;;;;;5004703;28;20030;-52
2023/03/08 06:08:01;;;;;;;16.58;10.43;;;26.80;79.20;;;;;;5005118;28;20030;-52
2023/03/08 06:10:27;;;;;;;12.00;9.32;;;26.90;79.20;;;;;;5004534;28;20035;-53
2023/03/08 06:12:54;;;;;;;14.00;9.98;;;26.80;79.00;;;;;;5004993;28;20030;-54
2023/03/08 06:15:21;;;;;;;14.95;9.88;;;26.90;79.20;;;;;;5004690;28;20038;-53
2023/03/08 06:17:47;;;;;;;16.67;9.88;;;26.80;78.90;;;;;;5004813;28;20031;-55
2023/03/08 06:20:15;;;;;;;13.00;9.27;;;26.80;78.90;;;;;;5004593;28;20036;-59
2023/03/08 06:22:42;;;;;;;13.65;9.40;;;26.90;78.90;;;;;;5004743;28;20109;-57
2023/03/08 06:25:08;;;;;;;16.70;10.30;;;26.80;78.80;;;;;;5004378;28;20018;-55
2023/03/08 06:27:35;;;;;;;11.70;9.13;;;26.80;78.90;;;;;;5004733;28;20058;-53
2023/03/08 06:30:02;;;;;;;13.02;10.00;;;26.80;78.90;;;;;;5004455;28;20373;-52
2023/03/08 06:32:28;;;;;;;12.20;9.55;;;26.80;79.00;;;;;;5004542;28;20220;-50
2023/03/08 06:34:55;;;;;;;14.63;9.98;;;26.80;79.00;;;;;;5004620;28;20037;-51
2023/03/08 06:37:21;;;;;;;13.13;9.75;;;26.80;79.20;;;;;;5015614;28;20040;-51
2023/03/08 06:39:48;;;;;;;13.48;9.68;;;26.80;79.20;;;;;;5004203;28;20038;-56
2023/03/08 06:42:14;;;;;;;15.57;10.10;;;26.70;79.10;;;;;;5004676;28;20257;-52
2023/03/08 06:44:41;;;;;;;14.00;9.63;;;26.70;79.10;;;;;;5004291;28;20058;-52
2023/03/08 06:47:07;;;;;;;13.63;9.27;;;26.70;79.20;;;;;;5004230;28;20302;-54
2023/03/08 06:49:34;;;;;;;13.38;9.20;;;26.70;79.10;;;;;;5004339;28;20031;-53
2023/03/08 06:52:01;;;;;;;13.13;9.35;;;26.70;79.10;;;;;;5004536;28;20030;-57
2023/03/08 06:54:27;;;;;;;10.50;8.70;;;26.70;79.00;;;;;;5004627;28;20057;-53
2023/03/08 06:56:54;;;;;;;11.20;9.45;;;26.70;79.50;;;;;;5008356;28;20030;-53
2023/03/08 06:59:20;;;;;;;14.38;9.38;;;26.70;78.90;;;;;;5008128;28;20034;-53
2023/03/08 07:01:47;;;;;;;11.82;8.82;;;26.70;78.80;;;;;;5008139;28;20062;-54
2023/03/08 07:04:13;;;;;;;11.65;9.35;;;26.70;78.70;;;;;;5008196;28;20346;-50
2023/03/08 07:06:40;;;;;;;12.45;8.80;;;26.70;78.70;;;;;;5008129;28;20034;-51
2023/03/08 07:09:07;;;;;;;12.07;8.98;;;26.70;78.60;;;;;;5007994;28;20046;-52
2023/03/08 07:11:33;;;;;;;15.68;8.98;;;26.70;78.60;;;;;;5008069;28;20057;-52
2023/03/08 07:14:00;;;;;;;13.00;8.70;;;26.70;78.60;;;;;;5015743;28;20326;-51
2023/03/08 07:16:27;;;;;;;12.35;9.18;;;26.60;78.50;;;;;;5027499;28;20333;-51
2023/03/08 07:18:55;;;;;;;14.23;9.52;;;26.70;78.50;;;;;;5027340;28;20225;-52
2023/03/08 07:21:23;;;;;;;12.05;9.00;;;26.70;78.60;;;;;;5027185;28;20254;-53
2023/03/08 07:23:52;;;;;;;12.18;9.02;;;26.70;78.30;;;;;;5027294;28;20021;-52
2023/03/08 07:26:19;;;;;;;11.20;8.63;;;26.70;78.20;;;;;;5027226;28;20040;-52
2023/03/08 07:28:49;;;;;;;12.35;8.90;;;26.70;78.00;;;;;;5027389;28;20030;-55
2023/03/08 07:31:16;;;;;;;12.63;8.77;;;26.70;78.00;;;;;;5026994;28;20026;-53
2023/03/08 07:33:42;;;;;;;12.18;8.88;;;26.60;78.00;;;;;;5027057;28;20037;-52
2023/03/08 07:36:09;;;;;;;11.77;8.77;;;26.60;78.00;;;;;;5027080;28;20029;-52
2023/03/08 07:38:36;;;;;;;12.77;9.32;;;26.70;78.10;;;;;;5027437;28;20105;-55
2023/03/08 07:41:03;;;;;;;15.13;9.52;;;26.70;78.10;;;;;;5026791;28;20238;-55
2023/03/08 07:43:29;;;;;;;12.82;9.07;;;26.70;78.10;;;;;;5027533;28;20040;-55
2023/03/08 07:46:00;;;;;;;15.27;9.15;;;26.60;78.10;;;;;;5026899;28;20022;-53
2023/03/08 07:48:27;;;;;;;13.57;9.30;;;26.60;78.30;;;;;;5027270;28;20080;-53
2023/03/08 07:50:54;;;;;;;12.27;8.68;;;26.60;78.30;;;;;;5026832;28;20105;-52
2023/03/08 07:53:20;;;;;;;13.18;8.75;;;26.60;78.30;;;;;;5027157;28;20317;-55
2023/03/08 07:55:47;;;;;;;13.48;9.07;;;26.60;78.30;;;;;;5026961;28;20219;-50
2023/03/08 07:58:14;;;;;;;13.23;9.00;;;26.60;78.30;;;;;;5027306;28;20214;-53
2023/03/08 08:00:40;;;;;;;10.43;8.52;;;26.50;78.30;;;;;;5026735;28;20300;-52
2023/03/08 08:03:07;;;;;;;10.48;8.65;;;26.50;78.40;;;;;;5026828;28;20045;-56
2023/03/08 08:05:35;;;;;;;10.80;9.02;;;26.50;78.40;;;;;;5026273;28;20092;-52
2023/03/08 08:08:02;;;;;;;13.88;9.30;;;26.50;78.50;;;;;;5026460;28;20026;-52
2023/03/08 08:10:29;;;;;;;15.85;9.63;;;26.50;78.60;;;;;;5022721;28;20038;-50
2023/03/08 08:12:55;;;;;;;14.50;9.45;;;26.50;78.60;;;;;;5016232;28;20038;-56
2023/03/08 08:15:24;;;;;;;10.75;9.23;;;26.50;78.60;;;;;;5006753;28;20030;-55
2023/03/08 08:17:51;;;;;;;15.27;9.18;;;26.50;78.80;;;;;;5006910;28;20081;-52
2023/03/08 08:20:18;;;;;;;14.80;9.73;;;26.50;78.80;;;;;;5006664;28;20212;-56
2023/03/08 08:22:44;;;;;;;14.65;9.60;;;26.50;78.80;;;;;;5006881;28;20210;-54
2023/03/08 08:25:11;;;;;;;13.38;9.50;;;26.40;78.90;;;;;;5006469;28;20015;-54
2023/03/08 08:27:37;;;;;;;14.75;9.95;;;26.50;79.10;;;;;;5006931;28;20033;-53
2023/03/08 08:30:05;;;;;;;14.00;9.20;;;26.40;79.00;;;;;;5006603;28;20318;-52
2023/03/08 08:32:34;;;;;;;10.95;9.30;;;26.50;79.20;;;;;;5006579;28;20062;-52
2023/03/08 08:35:00;;;;;;;14.32;9.80;;;26.40;79.20;;;;;;5006562;28;20030;-53
2023/03/08 08:37:28;;;;;;;12.73;9.10;;;26.40;79.30;;;;;;5006674;28;20030;-52
2023/03/08 08:39:55;;;;;;;16.23;9.52;;;26.40;79.30;;;;;;5005917;28;20030;-50
2023/03/08 08:42:21;;;;;;;14.50;9.90;;;26.40;79.40;;;;;;5006445;28;20030;-51
2023/03/08 08:44:48;;;;;;;11.80;9.00;;;26.40;79.40;;;;;;5006234;28;20041;-50
2023/03/08 08:47:15;;;;;;;14.93;9.93;;;26.40;79.30;;;;;;5006282;28;20026;-51
2023/03/08 08:49:41;;;;;;;14.63;10.00;;;26.40;79.20;;;;;;5006134;28;20326;-53
2023/03/08 08:52:08;;;;;;;13.30;9.93;;;26.40;79.20;;;;;;5006317;28;20034;-51
2023/03/08 08:54:38;;;;;;;14.38;9.43;;;26.40;79.10;;;;;;5005919;28;20053;-53
2023/03/08 08:57:06;;;;;;;14.80;9.70;;;26.40;79.20;;;;;;5006107;28;20038;-48
2023/03/08 08:59:33;;;;;;;13.18;9.13;;;26.30;79.10;;;;;;5006031;28;20060;-50
2023/03/08 09:02:00;;;;;;;14.40;9.43;;;26.40;79.20;;;;;;5010569;28;20030;-52
2023/03/08 09:04:26;;;;;;;15.38;9.73;;;26.30;79.00;;;;;;5025443;28;20033;-53
2023/03/08 09:06:53;;;;;;;13.75;9.65;;;26.40;79.00;;;;;;5025444;28;20025;-54
2023/03/08 09:09:20;;;;;;;15.80;9.55;;;26.40;79.10;;;;;;5025234;28;20321;-52
2023/03/08 09:11:47;;;;;;;12.07;9.23;;;26.30;79.00;;;;;;5025434;28;20306;-62
2023/03/08 09:14:14;;;;;;;13.45;9.02;;;26.30;79.10;;;;;;5025273;28;20310;-51
2023/03/08 09:16:40;;;;;;;12.00;9.38;;;26.30;79.10;;;;;;5025012;28;20044;-52
2023/03/08 09:19:07;;;;;;;13.75;8.77;;;26.30;79.20;;;;;;5024704;28;20052;-53
2023/03/08 09:21:34;;;;;;;13.10;9.10;;;26.30;79.20;;;;;;5025111;28;20042;-52
2023/03/08 09:24:04;;;;;;;16.58;10.25;;;26.30;79.30;;;;;;5024989;28;20337;-54
2023/03/08 09:26:31;;;;;;;14.73;9.23;;;26.30;79.40;;;;;;5025111;28;20029;-52
2023/03/08 09:29:03;;;;;;;11.65;9.02;;;26.30;79.50;;;;;;5025199;28;20037;-53
2023/03/08 09:31:31;;;;;;;15.48;9.88;;;26.30;79.60;;;;;;5025024;28;20080;-53
2023/03/08 09:33:58;;;;;;;14.65;9.80;;;26.30;79.50;;;;;;5025210;28;20226;-56
2023/03/08 09:36:27;;;;;;;14.27;9.63;;;26.30;79.50;;;;;;5024988;28;20026;-59
2023/03/08 09:38:54;;;;;;;15.25;9.10;;;26.30;79.50;;;;;;5024680;28;20033;-51
2023/03/08 09:41:36;;;;;;;12.32;9.38;;;26.20;79.50;;;;;;5024515;28;20033;-52
2023/03/08 09:44:42;;;;;;;13.50;9.65;;;26.20;79.50;;;;;;5024718;28;20033;-53
2023/03/08 09:47:29;;;;;;;9.98;8.93;;;26.30;79.50;;;;;;5024741;28;20041;-54
2023/03/08 09:50:10;;;;;;;14.95;9.50;;;26.20;79.50;;;;;;5024837;28;20025;-52
2023/03/08 09:53:08;;;;;;;11.98;9.68;;;26.20;79.70;;;;;;5024609;28;20092;-52
2023/03/08 09:55:40;;;;;;;11.75;8.88;;;26.20;79.90;;;;;;5024305;28;20033;-52
2023/03/08 09:58:32;;;;;;;15.07;9.50;;;26.20;79.90;;;;;;5011966;28;20038;-55
2023/03/08 10:01:19;;;;;;;12.77;9.77;;;26.20;80.00;;;;;;5024403;28;20057;-51
2023/03/08 10:03:58;;;;;;;15.00;9.57;;;26.10;80.10;;;;;;5024431;28;20087;-51
2023/03/08 10:06:59;;;;;;;13.10;9.60;;;26.10;80.30;;;;;;5024320;28;20033;-52
2023/03/08 10:09:25;;;;;;;16.40;9.90;;;26.10;80.30;;;;;;5024288;28;20044;-52
2023/03/08 10:12:15;;;;;;;14.57;10.02;;;26.10;80.30;;;;;;5024610;28;20358;-52
2023/03/08 10:14:50;;;;;;;15.35;9.38;;;26.10;80.50;;;;;;5024223;28;20386;-53
2023/03/08 10:17:39;;;;;;;13.50;9.40;;;26.10;80.80;;;;;;5024548;28;20209;-55
2023/03/08 10:20:31;;;;;;;16.13;9.93;;;26.10;80.90;;;;;;5023066;28;20195;-54
2023/03/08 10:23:22;;;;;;;14.95;10.13;;;26.10;81.00;;;;;;5024356;28;20048;-52
2023/03/08 10:25:50;;;;;;;22.58;10.52;;;26.00;80.90;;;;;;5024116;28;20033;-51
2023/03/08 10:28:22;;;;;;;14.82;9.50;;;26.00;80.70;;;;;;5024409;28;20033;-51
2023/03/08 10:30:50;;;;;;;;;;;26.00;80.60;;;;;;5024481;28;20286;-51
2023/03/08 10:33:19;;;;;;;15.85;9.68;;;26.10;80.50;;;;;;5024601;28;19909;-53
2023/03/08 10:36:08;;;;;;;14.52;9.10;;;26.00;80.60;;;;;;5024098;28;20071;-53
2023/03/08 10:38:37;;;;;;;15.77;10.13;;;26.00;80.70;;;;;;5023904;28;20042;-45
2023/03/08 10:41:11;;;;;;;19.85;10.48;;;26.00;80.80;;;;;;5023888;28;20058;-50
2023/03/08 10:43:46;;;;;;;19.00;10.30;;;26.00;80.80;;;;;;5023948;28;20041;-52
2023/03/08 10:46:16;;;;;;;19.08;10.40;;;26.10;80.90;;;;;;5023684;28;20030;-52
2023/03/08 10:48:43;;;;;;;16.88;9.52;;;26.00;81.40;;;;;;5023964;28;20036;-52
2023/03/08 10:51:25;;;;;;;14.23;9.63;;;26.10;81.10;;;;;;5023955;28;20124;-52
2023/03/08 10:53:57;;;;;;;18.67;10.00;;;26.10;81.30;;;;;;5023548;28;20022;-53
2023/03/08 10:56:45;;;;;;;18.77;10.40;;;26.00;81.40;;;;;;5023789;28;20022;-53
2023/03/08 10:59:27;;;;;;;19.98;11.32;;;26.00;81.70;;;;;;5023830;28;20034;-53
2023/03/08 11:01:58;;;;;;;19.83;12.70;;;26.00;82.00;;;;;;5018670;28;20030;-54
2023/03/08 11:04:27;;;;;;;23.05;11.50;;;26.00;82.10;;;;;;5023716;28;20057;-53
2023/03/08 11:06:54;;;;;;;22.48;12.23;;;26.00;82.20;;;;;;5023870;28;20018;-52
2023/03/08 11:09:26;;;;;;;26.75;11.68;;;26.00;82.10;;;;;;5014407;28;20077;-53
2023/03/08 11:11:55;;;;;;;22.38;12.02;;;26.00;82.20;;;;;;5015587;28;20029;-56
2023/03/08 11:14:22;;;;;;;28.35;12.48;;;26.00;82.10;;;;;;5025329;28;20022;-50
2023/03/08 11:17:03;;;;;;;29.90;12.18;;;26.00;82.10;;;;;;5033508;28;20046;-57
2023/03/08 11:19:42;;;;;;;29.25;13.15;;;26.00;82.20;;;;;;5028687;28;20026;-55
2023/03/08 11:22:43;;;;;;;32.97;13.82;;;26.10;82.80;;;;;;5031226;28;20088;-50
2023/03/08 11:25:31;;;;;;;29.08;12.48;;;26.10;83.20;;;;;;5032805;28;20344;-56
2023/03/08 11:28:26;;;;;;;33.20;13.70;;;26.10;83.10;;;;;;5030000;28;20026;-53
2023/03/08 11:30:58;;;;;;;66.18;25.75;;;26.10;83.10;;;;;;5043248;28;20041;-52
2023/03/08 11:33:30;;;;;;;67.60;22.25;;;26.10;83.20;;;;;;5043725;28;20053;-53
2023/03/08 11:36:34;;;;;;;45.78;16.95;;;26.10;83.00;;;;;;5043880;28;20317;-52
2023/03/08 11:39:18;;;;;;;42.40;15.68;;;26.10;83.00;;;;;;5042933;28;20049;-50
2023/03/08 11:42:03;;;;;;;36.65;14.50;;;26.10;82.90;;;;;;5045297;28;20046;-50
2023/03/08 11:44:32;;;;;;;36.22;14.55;;;26.20;82.90;;;;;;5046680;28;20025;-53
2023/03/08 11:47:08;;;;;;;33.90;13.88;;;26.20;82.90;;;;;;5045931;28;20033;-54
2023/03/08 11:50:08;;;;;;;38.83;13.75;;;26.30;82.60;;;;;;5046607;28;20028;-53
2023/03/08 11:52:46;;;;;;;35.60;13.63;;;26.30;82.50;;;;;;5046630;28;20083;-53
2023/03/08 11:55:49;;;;;;;38.35;13.45;;;26.30;82.30;;;;;;5046527;28;20091;-53
2023/03/08 11:58:29;;;;;;;36.40;13.50;;;26.40;82.40;;;;;;5046984;28;20209;-54
2023/03/08 12:01:02;;;;;;;28.25;12.82;;;26.40;82.40;;;;;;5046421;28;20273;-51
2023/03/08 12:03:37;;;;;;;29.48;12.50;;;26.40;82.30;;;;;;5046823;28;20246;-51
2023/03/08 12:06:19;;;;;;;28.65;12.38;;;26.50;82.40;;;;;;5046242;28;20052;-53
2023/03/08 12:09:23;;;;;;;30.50;12.40;;;26.50;82.40;;;;;;5047244;28;20040;-53
2023/03/08 12:12:04;;;;;;;23.15;12.35;;;26.60;82.40;;;;;;5046312;28;20025;-53
2023/03/08 12:14:45;;;;;;;28.27;12.50;;;26.60;82.60;;;;;;5046086;28;20033;-55
2023/03/08 12:17:23;;;;;;;30.15;12.02;;;26.70;82.50;;;;;;5046391;28;20038;-57
2023/03/08 12:19:51;;;;;;;25.85;12.52;;;26.60;82.40;;;;;;5045905;28;20029;-57
2023/03/08 12:22:45;;;;;;;28.02;11.70;;;26.70;82.80;;;;;;5045830;28;20040;-53
2023/03/08 12:25:19;;;;;;;24.55;11.23;;;26.70;83.00;;;;;;5045874;28;20041;-53
2023/03/08 12:28:16;;;;;;;25.25;11.05;;;26.70;83.20;;;;;;5046215;28;20034;-53
2023/03/08 12:31:00;;;;;;;19.55;11.68;;;26.70;83.30;;;;;;5045823;28;20096;-57
2023/03/08 12:33:29;;;;;;;20.95;10.98;;;26.70;83.60;;;;;;5046207;28;20301;-54
2023/03/08 12:36:01;;;;;;;20.48;11.73;;;26.80;83.80;;;;;;5045768;28;20040;-51
2023/03/08 12:38:37;;;;;;;20.40;12.38;;;26.70;83.70;;;;;;5046091;28;20101;-55
2023/03/08 12:41:17;;;;;;;18.75;12.43;;;26.70;83.70;;;;;;5045721;28;20061;-50
2023/03/08 12:43:44;;;;;;;22.00;12.70;;;26.80;83.60;;;;;;5045723;28;20032;-53
2023/03/08 12:46:11;;;;;;;18.98;12.93;;;26.80;83.80;;;;;;5045711;28;20029;-54
2023/03/08 12:48:43;;;;;;;22.35;12.73;;;26.70;84.00;;;;;;5045624;28;20026;-53